sensor_id;sensor_type;location;lat;lon;timestamp;P1;durP1;ratioP1;P2;durP2;ratioP2
71753;SDS011;59593;51.716;7.016;2023-08-01T00:13:55;3.03;;;1.23;;
71753;SDS011;59593;51.716;7.016;2023-08-01T00:16:21;1.38;;;1.27;;
71753;SDS011;59593;51.716;7.016;2023-08-01T00:18:48;1.67;;;1.10;;
71753;SDS011;59593;51.716;7.016;2023-08-01T00:21:19;3.08;;;1.33;;
71753;SDS011;59593;51.716;7.016;2023-08-01T00:26:41;2.55;;;1.52;;
71753;SDS011;59593;51.716;7.016;2023-08-01T00:29:14;3.75;;;1.55;;
71753;SDS011;59593;51.716;7.016;2023-08-01T00:32:02;2.40;;;1.38;;
71753;SDS011;59593;51.716;7.016;2023-08-01T00:34:37;1.60;;;1.30;;
71753;SDS011;59593;51.716;7.016;2023-08-01T00:37:14;3.85;;;1.42;;
71753;SDS011;59593;51.716;7.016;2023-08-01T00:39:42;1.40;;;1.30;;
71753;SDS011;59593;51.716;7.016;2023-08-01T00:42:19;2.40;;;1.30;;
71753;SDS011;59593;51.716;7.016;2023-08-01T00:44:51;1.88;;;1.40;;
71753;SDS011;59593;51.716;7.016;2023-08-01T00:47:19;2.22;;;1.58;;
71753;SDS011;59593;51.716;7.016;2023-08-01T00:49:45;2.88;;;1.40;;
71753;SDS011;59593;51.716;7.016;2023-08-01T00:52:16;3.40;;;1.60;;
71753;SDS011;59593;51.716;7.016;2023-08-01T00:54:45;1.95;;;1.42;;
71753;SDS011;59593;51.716;7.016;2023-08-01T00:57:13;1.48;;;1.33;;
71753;SDS011;59593;51.716;7.016;2023-08-01T00:59:39;3.28;;;1.58;;
71753;SDS011;59593;51.716;7.016;2023-08-01T01:02:05;2.72;;;1.80;;
71753;SDS011;59593;51.716;7.016;2023-08-01T04:06:20;18.98;;;12.70;;
71753;SDS011;59593;51.716;7.016;2023-08-01T04:08:57;19.77;;;13.43;;
71753;SDS011;59593;51.716;7.016;2023-08-01T04:11:24;16.92;;;13.13;;
71753;SDS011;59593;51.716;7.016;2023-08-01T04:13:50;16.20;;;12.13;;
71753;SDS011;59593;51.716;7.016;2023-08-01T04:16:19;16.58;;;11.25;;
71753;SDS011;59593;51.716;7.016;2023-08-01T04:18:45;14.48;;;11.05;;
71753;SDS011;59593;51.716;7.016;2023-08-01T04:21:13;15.65;;;10.65;;
71753;SDS011;59593;51.716;7.016;2023-08-01T04:27:19;14.63;;;10.60;;
71753;SDS011;59593;51.716;7.016;2023-08-01T04:33:09;19.20;;;12.27;;
71753;SDS011;59593;51.716;7.016;2023-08-01T04:35:42;16.75;;;12.27;;
71753;SDS011;59593;51.716;7.016;2023-08-01T04:38:15;23.23;;;12.38;;
71753;SDS011;59593;51.716;7.016;2023-08-01T04:43:55;16.45;;;11.77;;
71753;SDS011;59593;51.716;7.016;2023-08-01T04:46:24;19.23;;;12.18;;
71753;SDS011;59593;51.716;7.016;2023-08-01T04:48:49;17.90;;;11.93;;
71753;SDS011;59593;51.716;7.016;2023-08-01T04:51:18;20.27;;;12.40;;
71753;SDS011;59593;51.716;7.016;2023-08-01T04:53:48;16.67;;;11.50;;
71753;SDS011;59593;51.716;7.016;2023-08-01T04:56:14;23.88;;;12.77;;
71753;SDS011;59593;51.716;7.016;2023-08-01T04:59:11;16.55;;;11.63;;
71753;SDS011;59593;51.716;7.016;2023-08-01T05:02:08;18.75;;;12.38;;
71753;SDS011;59593;51.716;7.016;2023-08-01T09:21:32;10.57;;;5.68;;
71753;SDS011;59593;51.716;7.016;2023-08-01T09:24:14;8.88;;;4.70;;
71753;SDS011;59593;51.716;7.016;2023-08-01T09:26:46;8.98;;;4.30;;
71753;SDS011;59593;51.716;7.016;2023-08-01T09:29:26;7.47;;;4.35;;
71753;SDS011;59593;51.716;7.016;2023-08-01T09:31:52;7.47;;;4.43;;
71753;SDS011;59593;51.716;7.016;2023-08-01T09:34:20;9.18;;;4.93;;
71753;SDS011;59593;51.716;7.016;2023-08-01T09:37:15;8.82;;;5.65;;
71753;SDS011;59593;51.716;7.016;2023-08-01T09:39:44;7.15;;;5.57;;
71753;SDS011;59593;51.716;7.016;2023-08-01T09:42:44;9.20;;;5.55;;
71753;SDS011;59593;51.716;7.016;2023-08-01T09:51:58;10.60;;;5.65;;
71753;SDS011;59593;51.716;7.016;2023-08-01T09:54:27;11.82;;;5.70;;
71753;SDS011;59593;51.716;7.016;2023-08-01T16:29:12;6.82;;;1.67;;
71753;SDS011;59593;51.716;7.016;2023-08-01T16:35:33;6.50;;;2.45;;
71753;SDS011;59593;51.716;7.016;2023-08-01T16:37:58;6.18;;;1.60;;
71753;SDS011;59593;51.716;7.016;2023-08-01T16:40:24;3.72;;;1.63;;
71753;SDS011;59593;51.716;7.016;2023-08-01T16:42:59;8.52;;;2.38;;
71753;SDS011;59593;51.716;7.016;2023-08-01T16:45:25;6.78;;;1.92;;
71753;SDS011;59593;51.716;7.016;2023-08-01T16:47:53;4.93;;;1.90;;
71753;SDS011;59593;51.716;7.016;2023-08-01T16:50:19;6.40;;;1.88;;
71753;SDS011;59593;51.716;7.016;2023-08-01T16:53:10;5.95;;;2.10;;
71753;SDS011;59593;51.716;7.016;2023-08-01T16:55:36;7.80;;;1.80;;
71753;SDS011;59593;51.716;7.016;2023-08-01T16:58:13;4.15;;;1.60;;
71753;SDS011;59593;51.716;7.016;2023-08-01T17:01:01;5.82;;;1.85;;
71753;SDS011;59593;51.716;7.016;2023-08-01T17:03:50;5.60;;;1.95;;
71753;SDS011;59593;51.716;7.016;2023-08-01T17:06:29;4.03;;;1.75;;
71753;SDS011;59593;51.716;7.016;2023-08-01T17:08:57;4.05;;;1.73;;
71753;SDS011;59593;51.716;7.016;2023-08-01T17:11:28;5.60;;;1.60;;
71753;SDS011;59593;51.716;7.016;2023-08-01T17:14:05;4.40;;;1.50;;
71753;SDS011;59593;51.716;7.016;2023-08-01T17:19:43;6.28;;;2.00;;
71753;SDS011;59593;51.716;7.016;2023-08-01T17:22:25;4.80;;;2.03;;
71753;SDS011;59593;51.716;7.016;2023-08-01T17:25:22;6.18;;;1.50;;
71753;SDS011;59593;51.716;7.016;2023-08-01T17:33:38;5.55;;;1.83;;
71753;SDS011;59593;51.716;7.016;2023-08-01T17:36:21;6.03;;;1.98;;
71753;SDS011;59593;51.716;7.016;2023-08-01T17:38:55;6.85;;;1.80;;
